sensor_id;sensor_type;location;lat;lon;timestamp;temperature;humidity
29803;DHT22;16702;50.898;4.662;2022-11-20T00:00:00;7.20;99.90
29803;DHT22;16702;50.898;4.662;2022-11-20T00:02:33;7.20;99.90
29803;DHT22;16702;50.898;4.662;2022-11-20T00:05:03;7.20;99.90
29803;DHT22;16702;50.898;4.662;2022-11-20T00:07:34;7.20;99.90
29803;DHT22;16702;50.898;4.662;2022-11-20T00:10:05;7.30;99.90
29803;DHT22;16702;50.898;4.662;2022-11-20T00:12:36;7.20;99.90
29803;DHT22;16702;50.898;4.662;2022-11-20T00:15:09;7.30;99.90
29803;DHT22;16702;50.898;4.662;2022-11-20T00:17:40;7.30;99.90
29803;DHT22;16702;50.898;4.662;2022-11-20T00:20:11;7.20;99.90
29803;DHT22;16702;50.898;4.662;2022-11-20T00:22:42;7.30;99.90
29803;DHT22;16702;50.898;4.662;2022-11-20T00:25:12;7.20;99.90
29803;DHT22;16702;50.898;4.662;2022-11-20T00:27:43;7.30;99.90
29803;DHT22;16702;50.898;4.662;2022-11-20T00:30:18;7.20;99.90
29803;DHT22;16702;50.898;4.662;2022-11-20T00:32:48;7.30;99.90
29803;DHT22;16702;50.898;4.662;2022-11-20T00:35:19;7.30;99.90
29803;DHT22;16702;50.898;4.662;2022-11-20T00:37:49;7.30;99.90
29803;DHT22;16702;50.898;4.662;2022-11-20T00:40:20;7.20;99.90
29803;DHT22;16702;50.898;4.662;2022-11-20T00:42:50;7.30;99.90
29803;DHT22;16702;50.898;4.662;2022-11-20T00:45:23;7.20;99.90
29803;DHT22;16702;50.898;4.662;2022-11-20T00:47:53;7.20;99.90
29803;DHT22;16702;50.898;4.662;2022-11-20T00:50:24;7.30;99.90
29803;DHT22;16702;50.898;4.662;2022-11-20T00:52:54;7.30;99.90
29803;DHT22;16702;50.898;4.662;2022-11-20T00:55:24;7.30;99.90
29803;DHT22;16702;50.898;4.662;2022-11-20T00:57:55;7.30;99.90
29803;DHT22;16702;50.898;4.662;2022-11-20T01:00:33;7.30;99.90
29803;DHT22;16702;50.898;4.662;2022-11-20T01:03:03;7.20;99.90
29803;DHT22;16702;50.898;4.662;2022-11-20T01:05:34;7.30;99.90
29803;DHT22;16702;50.898;4.662;2022-11-20T01:08:05;7.30;99.90
29803;DHT22;16702;50.898;4.662;2022-11-20T01:10:35;7.30;99.90
29803;DHT22;16702;50.898;4.662;2022-11-20T01:13:06;7.40;99.90
29803;DHT22;16702;50.898;4.662;2022-11-20T01:15:54;7.30;99.90
29803;DHT22;16702;50.898;4.662;2022-11-20T01:18:24;7.30;99.90
29803;DHT22;16702;50.898;4.662;2022-11-20T01:20:55;7.30;99.90
29803;DHT22;16702;50.898;4.662;2022-11-20T01:23:25;7.30;99.90
29803;DHT22;16702;50.898;4.662;2022-11-20T01:25:55;7.30;99.90
29803;DHT22;16702;50.898;4.662;2022-11-20T01:28:26;7.20;99.90
29803;DHT22;16702;50.898;4.662;2022-11-20T01:30:59;7.30;99.90
29803;DHT22;16702;50.898;4.662;2022-11-20T01:33:29;7.30;99.90
29803;DHT22;16702;50.898;4.662;2022-11-20T01:36:04;7.20;99.90
29803;DHT22;16702;50.898;4.662;2022-11-20T01:38:35;7.30;99.90
29803;DHT22;16702;50.898;4.662;2022-11-20T01:41:06;7.20;99.90
29803;DHT22;16702;50.898;4.662;2022-11-20T01:43:37;7.30;99.90
29803;DHT22;16702;50.898;4.662;2022-11-20T01:46:14;7.30;99.90
29803;DHT22;16702;50.898;4.662;2022-11-20T01:48:51;7.30;99.90
29803;DHT22;16702;50.898;4.662;2022-11-20T01:51:28;7.20;99.90
29803;DHT22;16702;50.898;4.662;2022-11-20T01:54:02;7.20;99.90
29803;DHT22;16702;50.898;4.662;2022-11-20T01:56:38;7.40;99.90
29803;DHT22;16702;50.898;4.662;2022-11-20T01:59:10;7.20;99.90
29803;DHT22;16702;50.898;4.662;2022-11-20T02:01:45;7.20;99.90
29803;DHT22;16702;50.898;4.662;2022-11-20T02:04:16;7.20;99.90
29803;DHT22;16702;50.898;4.662;2022-11-20T02:06:49;7.20;99.90
29803;DHT22;16702;50.898;4.662;2022-11-20T02:09:21;7.30;99.90
29803;DHT22;16702;50.898;4.662;2022-11-20T02:11:52;7.20;99.90
29803;DHT22;16702;50.898;4.662;2022-11-20T02:14:23;7.20;99.90
29803;DHT22;16702;50.898;4.662;2022-11-20T02:16:54;7.20;99.90
29803;DHT22;16702;50.898;4.662;2022-11-20T02:19:28;7.10;99.90
29803;DHT22;16702;50.898;4.662;2022-11-20T02:22:04;7.20;99.90
29803;DHT22;16702;50.898;4.662;2022-11-20T02:24:38;7.20;99.90
29803;DHT22;16702;50.898;4.662;2022-11-20T02:27:10;7.10;99.90
29803;DHT22;16702;50.898;4.662;2022-11-20T02:29:44;7.20;99.90
29803;DHT22;16702;50.898;4.662;2022-11-20T02:32:19;7.10;99.90
29803;DHT22;16702;50.898;4.662;2022-11-20T02:34:50;7.20;99.90
29803;DHT22;16702;50.898;4.662;2022-11-20T02:37:21;7.10;99.90
29803;DHT22;16702;50.898;4.662;2022-11-20T02:39:54;7.00;99.90
29803;DHT22;16702;50.898;4.662;2022-11-20T02:42:24;7.10;99.90
29803;DHT22;16702;50.898;4.662;2022-11-20T02:44:55;7.10;99.90
29803;DHT22;16702;50.898;4.662;2022-11-20T02:47:25;7.10;99.90
29803;DHT22;16702;50.898;4.662;2022-11-20T02:49:55;7.10;99.90
29803;DHT22;16702;50.898;4.662;2022-11-20T02:52:26;7.10;99.90
29803;DHT22;16702;50.898;4.662;2022-11-20T02:54:59;7.10;99.90
29803;DHT22;16702;50.898;4.662;2022-11-20T02:57:29;7.10;99.90
29803;DHT22;16702;50.898;4.662;2022-11-20T02:59:59;7.10;99.90
29803;DHT22;16702;50.898;4.662;2022-11-20T03:02:30;7.00;99.90
29803;DHT22;16702;50.898;4.662;2022-11-20T03:05:00;7.00;99.90
29803;DHT22;16702;50.898;4.662;2022-11-20T03:07:31;7.10;99.90
29803;DHT22;16702;50.898;4.662;2022-11-20T03:10:05;7.10;99.90
29803;DHT22;16702;50.898;4.662;2022-11-20T03:12:35;7.10;99.90
29803;DHT22;16702;50.898;4.662;2022-11-20T03:15:07;7.10;99.90
29803;DHT22;16702;50.898;4.662;2022-11-20T03:17:37;7.10;99.90
29803;DHT22;16702;50.898;4.662;2022-11-20T03:20:09;7.20;99.90
29803;DHT22;16702;50.898;4.662;2022-11-20T03:22:39;7.10;99.90
29803;DHT22;16702;50.898;4.662;2022-11-20T03:25:12;7.10;99.90
29803;DHT22;16702;50.898;4.662;2022-11-20T03:27:43;7.10;99.90
29803;DHT22;16702;50.898;4.662;2022-11-20T03:30:14;7.10;99.90
29803;DHT22;16702;50.898;4.662;2022-11-20T03:32:44;7.20;99.90
29803;DHT22;16702;50.898;4.662;2022-11-20T03:35:15;7.20;99.90
29803;DHT22;16702;50.898;4.662;2022-11-20T03:37:45;7.10;99.90
29803;DHT22;16702;50.898;4.662;2022-11-20T03:40:18;7.10;99.90
29803;DHT22;16702;50.898;4.662;2022-11-20T03:42:48;7.10;99.90
29803;DHT22;16702;50.898;4.662;2022-11-20T03:45:19;7.10;99.90
29803;DHT22;16702;50.898;4.662;2022-11-20T03:47:49;7.10;99.90
29803;DHT22;16702;50.898;4.662;2022-11-20T03:50:20;7.10;99.90
29803;DHT22;16702;50.898;4.662;2022-11-20T03:52:50;7.10;99.90
29803;DHT22;16702;50.898;4.662;2022-11-20T03:55:23;7.10;99.90
29803;DHT22;16702;50.898;4.662;2022-11-20T03:57:54;7.10;99.90
29803;DHT22;16702;50.898;4.662;2022-11-20T04:00:24;7.10;99.90
29803;DHT22;16702;50.898;4.662;2022-11-20T04:02:57;7.20;99.90
29803;DHT22;16702;50.898;4.662;2022-11-20T04:05:28;7.30;99.90
29803;DHT22;16702;50.898;4.662;2022-11-20T04:07:58;7.20;99.90
29803;DHT22;16702;50.898;4.662;2022-11-20T04:10:32;7.10;99.90
29803;DHT22;16702;50.898;4.662;2022-11-20T04:13:02;7.10;99.90
29803;DHT22;16702;50.898;4.662;2022-11-20T04:15:32;7.20;99.90
29803;DHT22;16702;50.898;4.662;2022-11-20T04:18:04;7.20;99.90
29803;DHT22;16702;50.898;4.662;2022-11-20T04:20:35;7.20;99.90
29803;DHT22;16702;50.898;4.662;2022-11-20T04:23:06;7.20;99.90
29803;DHT22;16702;50.898;4.662;2022-11-20T04:25:38;7.20;99.90
29803;DHT22;16702;50.898;4.662;2022-11-20T04:28:09;7.10;99.90
29803;DHT22;16702;50.898;4.662;2022-11-20T04:30:39;7.10;99.90
29803;DHT22;16702;50.898;4.662;2022-11-20T04:33:10;7.20;99.90
29803;DHT22;16702;50.898;4.662;2022-11-20T04:35:40;7.20;99.90
29803;DHT22;16702;50.898;4.662;2022-11-20T04:38:11;7.30;99.90
29803;DHT22;16702;50.898;4.662;2022-11-20T04:40:44;7.20;99.90
29803;DHT22;16702;50.898;4.662;2022-11-20T04:43:14;7.20;99.90
29803;DHT22;16702;50.898;4.662;2022-11-20T04:45:50;7.20;99.90
29803;DHT22;16702;50.898;4.662;2022-11-20T04:48:21;7.10;99.90
29803;DHT22;16702;50.898;4.662;2022-11-20T04:50:52;7.10;99.90
29803;DHT22;16702;50.898;4.662;2022-11-20T04:53:23;7.10;99.90
29803;DHT22;16702;50.898;4.662;2022-11-20T04:56:02;7.00;99.90
29803;DHT22;16702;50.898;4.662;2022-11-20T04:58:34;7.10;99.90
29803;DHT22;16702;50.898;4.662;2022-11-20T05:01:06;7.00;99.90
29803;DHT22;16702;50.898;4.662;2022-11-20T05:03:36;7.00;99.90
29803;DHT22;16702;50.898;4.662;2022-11-20T05:06:10;7.00;99.90
29803;DHT22;16702;50.898;4.662;2022-11-20T05:08:41;7.00;99.90
29803;DHT22;16702;50.898;4.662;2022-11-20T05:11:16;7.00;99.90
29803;DHT22;16702;50.898;4.662;2022-11-20T05:13:47;7.20;99.90
29803;DHT22;16702;50.898;4.662;2022-11-20T05:16:19;7.10;99.90
29803;DHT22;16702;50.898;4.662;2022-11-20T05:18:51;7.10;99.90
29803;DHT22;16702;50.898;4.662;2022-11-20T05:21:21;7.10;99.90
29803;DHT22;16702;50.898;4.662;2022-11-20T05:23:52;7.10;99.90
29803;DHT22;16702;50.898;4.662;2022-11-20T05:26:25;7.10;99.90
29803;DHT22;16702;50.898;4.662;2022-11-20T05:28:55;7.00;99.90
29803;DHT22;16702;50.898;4.662;2022-11-20T05:31:25;7.10;99.90
29803;DHT22;16702;50.898;4.662;2022-11-20T05:33:56;7.10;99.90
29803;DHT22;16702;50.898;4.662;2022-11-20T05:36:27;7.10;99.90
29803;DHT22;16702;50.898;4.662;2022-11-20T05:38:57;7.10;99.90
29803;DHT22;16702;50.898;4.662;2022-11-20T05:41:32;7.20;99.90
29803;DHT22;16702;50.898;4.662;2022-11-20T05:44:03;7.20;99.90
29803;DHT22;16702;50.898;4.662;2022-11-20T05:46:33;7.20;99.90
29803;DHT22;16702;50.898;4.662;2022-11-20T05:49:03;7.20;99.90
29803;DHT22;16702;50.898;4.662;2022-11-20T05:51:34;7.20;99.90
29803;DHT22;16702;50.898;4.662;2022-11-20T05:54:04;7.10;99.90
29803;DHT22;16702;50.898;4.662;2022-11-20T05:56:37;7.20;99.90
29803;DHT22;16702;50.898;4.662;2022-11-20T05:59:08;7.10;99.90
29803;DHT22;16702;50.898;4.662;2022-11-20T06:01:38;7.10;99.90
29803;DHT22;16702;50.898;4.662;2022-11-20T06:04:08;7.10;99.90
29803;DHT22;16702;50.898;4.662;2022-11-20T06:06:39;7.30;99.90
29803;DHT22;16702;50.898;4.662;2022-11-20T06:09:09;7.20;99.90
29803;DHT22;16702;50.898;4.662;2022-11-20T06:11:42;7.20;99.90
29803;DHT22;16702;50.898;4.662;2022-11-20T06:14:12;7.20;99.90
29803;DHT22;16702;50.898;4.662;2022-11-20T06:16:42;7.20;99.90
29803;DHT22;16702;50.898;4.662;2022-11-20T06:19:13;7.20;99.90
29803;DHT22;16702;50.898;4.662;2022-11-20T06:21:43;7.20;99.90
29803;DHT22;16702;50.898;4.662;2022-11-20T06:24:14;7.20;99.90
29803;DHT22;16702;50.898;4.662;2022-11-20T06:26:47;7.20;99.90
29803;DHT22;16702;50.898;4.662;2022-11-20T06:29:17;7.30;99.90
29803;DHT22;16702;50.898;4.662;2022-11-20T06:31:48;7.30;99.90
29803;DHT22;16702;50.898;4.662;2022-11-20T06:34:18;7.20;99.90
29803;DHT22;16702;50.898;4.662;2022-11-20T06:36:49;7.20;99.90
29803;DHT22;16702;50.898;4.662;2022-11-20T06:39:19;7.20;99.90
29803;DHT22;16702;50.898;4.662;2022-11-20T06:41:52;7.20;99.90
29803;DHT22;16702;50.898;4.662;2022-11-20T06:44:25;7.30;99.90
29803;DHT22;16702;50.898;4.662;2022-11-20T06:46:55;7.30;99.90
29803;DHT22;16702;50.898;4.662;2022-11-20T06:49:26;7.30;99.90
29803;DHT22;16702;50.898;4.662;2022-11-20T06:51:56;7.30;99.90
29803;DHT22;16702;50.898;4.662;2022-11-20T06:54:26;7.30;99.90
29803;DHT22;16702;50.898;4.662;2022-11-20T06:56:59;7.20;99.90
29803;DHT22;16702;50.898;4.662;2022-11-20T06:59:30;7.30;99.90
29803;DHT22;16702;50.898;4.662;2022-11-20T07:02:00;7.30;99.90
29803;DHT22;16702;50.898;4.662;2022-11-20T07:04:30;7.30;99.90
29803;DHT22;16702;50.898;4.662;2022-11-20T07:07:01;7.30;99.90
29803;DHT22;16702;50.898;4.662;2022-11-20T07:09:31;7.30;99.90
29803;DHT22;16702;50.898;4.662;2022-11-20T07:12:05;7.30;99.90
29803;DHT22;16702;50.898;4.662;2022-11-20T07:14:35;7.30;99.90
29803;DHT22;16702;50.898;4.662;2022-11-20T07:17:05;7.30;99.90
29803;DHT22;16702;50.898;4.662;2022-11-20T07:19:36;7.20;99.90
29803;DHT22;16702;50.898;4.662;2022-11-20T07:22:06;7.20;99.90
29803;DHT22;16702;50.898;4.662;2022-11-20T07:24:36;7.20;99.90
29803;DHT22;16702;50.898;4.662;2022-11-20T07:27:14;7.30;99.90
29803;DHT22;16702;50.898;4.662;2022-11-20T07:29:45;7.20;99.90
29803;DHT22;16702;50.898;4.662;2022-11-20T07:32:15;7.20;99.90
29803;DHT22;16702;50.898;4.662;2022-11-20T07:34:45;7.20;99.90
29803;DHT22;16702;50.898;4.662;2022-11-20T07:37:16;7.20;99.90
29803;DHT22;16702;50.898;4.662;2022-11-20T07:39:46;7.40;99.90
29803;DHT22;16702;50.898;4.662;2022-11-20T07:42:19;7.20;99.90
29803;DHT22;16702;50.898;4.662;2022-11-20T07:44:50;7.30;99.90
29803;DHT22;16702;50.898;4.662;2022-11-20T07:47:21;7.20;99.90
29803;DHT22;16702;50.898;4.662;2022-11-20T07:49:52;7.20;99.90
29803;DHT22;16702;50.898;4.662;2022-11-20T07:52:22;7.30;99.90
29803;DHT22;16702;50.898;4.662;2022-11-20T07:54:52;7.30;99.90
29803;DHT22;16702;50.898;4.662;2022-11-20T07:57:25;7.30;99.90
29803;DHT22;16702;50.898;4.662;2022-11-20T07:59:55;7.30;99.90
29803;DHT22;16702;50.898;4.662;2022-11-20T08:02:26;7.30;99.90
29803;DHT22;16702;50.898;4.662;2022-11-20T08:04:56;7.30;99.90
29803;DHT22;16702;50.898;4.662;2022-11-20T08:07:27;7.30;99.90
29803;DHT22;16702;50.898;4.662;2022-11-20T08:09:57;7.30;99.90
29803;DHT22;16702;50.898;4.662;2022-11-20T08:12:30;7.30;99.90
29803;DHT22;16702;50.898;4.662;2022-11-20T08:15:13;7.40;99.90
29803;DHT22;16702;50.898;4.662;2022-11-20T08:17:43;7.40;99.90
29803;DHT22;16702;50.898;4.662;2022-11-20T08:20:34;7.40;99.90
29803;DHT22;16702;50.898;4.662;2022-11-20T08:23:06;7.40;99.90
29803;DHT22;16702;50.898;4.662;2022-11-20T08:25:37;7.50;99.90
29803;DHT22;16702;50.898;4.662;2022-11-20T08:28:10;7.50;99.90
29803;DHT22;16702;50.898;4.662;2022-11-20T08:30:47;7.50;99.90
29803;DHT22;16702;50.898;4.662;2022-11-20T08:33:18;7.50;99.90
29803;DHT22;16702;50.898;4.662;2022-11-20T08:35:48;7.60;99.90
29803;DHT22;16702;50.898;4.662;2022-11-20T08:38:19;7.50;99.90
29803;DHT22;16702;50.898;4.662;2022-11-20T08:40:49;7.50;99.90
29803;DHT22;16702;50.898;4.662;2022-11-20T08:43:34;7.50;99.90
29803;DHT22;16702;50.898;4.662;2022-11-20T08:46:04;7.50;99.90
29803;DHT22;16702;50.898;4.662;2022-11-20T08:48:35;7.50;99.90
29803;DHT22;16702;50.898;4.662;2022-11-20T08:51:05;7.70;99.90
29803;DHT22;16702;50.898;4.662;2022-11-20T08:53:36;7.60;99.90
29803;DHT22;16702;50.898;4.662;2022-11-20T08:56:07;7.60;99.90
29803;DHT22;16702;50.898;4.662;2022-11-20T08:58:40;7.60;99.90
29803;DHT22;16702;50.898;4.662;2022-11-20T09:01:30;7.60;99.90
29803;DHT22;16702;50.898;4.662;2022-11-20T09:04:02;7.60;99.90
29803;DHT22;16702;50.898;4.662;2022-11-20T09:06:32;7.60;99.90
29803;DHT22;16702;50.898;4.662;2022-11-20T09:09:02;7.70;99.90
29803;DHT22;16702;50.898;4.662;2022-11-20T09:11:34;7.70;99.90
29803;DHT22;16702;50.898;4.662;2022-11-20T09:14:07;7.70;99.90
29803;DHT22;16702;50.898;4.662;2022-11-20T09:16:38;7.70;99.90
29803;DHT22;16702;50.898;4.662;2022-11-20T09:19:08;7.70;99.90
29803;DHT22;16702;50.898;4.662;2022-11-20T09:21:58;7.70;99.90
29803;DHT22;16702;50.898;4.662;2022-11-20T09:24:29;7.80;99.90
29803;DHT22;16702;50.898;4.662;2022-11-20T09:27:02;7.80;99.90
29803;DHT22;16702;50.898;4.662;2022-11-20T09:29:35;7.80;99.90
29803;DHT22;16702;50.898;4.662;2022-11-20T09:32:06;7.80;99.90
29803;DHT22;16702;50.898;4.662;2022-11-20T09:34:36;7.80;99.90
29803;DHT22;16702;50.898;4.662;2022-11-20T09:37:06;7.90;99.90
29803;DHT22;16702;50.898;4.662;2022-11-20T09:39:37;7.90;99.90
29803;DHT22;16702;50.898;4.662;2022-11-20T09:42:26;7.90;99.90
29803;DHT22;16702;50.898;4.662;2022-11-20T09:45:24;7.90;99.90
29803;DHT22;16702;50.898;4.662;2022-11-20T09:48:03;7.90;99.90
29803;DHT22;16702;50.898;4.662;2022-11-20T09:50:37;8.00;99.90
29803;DHT22;16702;50.898;4.662;2022-11-20T09:53:22;7.90;99.90
29803;DHT22;16702;50.898;4.662;2022-11-20T09:55:55;7.90;99.90
29803;DHT22;16702;50.898;4.662;2022-11-20T09:58:30;8.00;99.90
29803;DHT22;16702;50.898;4.662;2022-11-20T10:01:10;8.00;99.90
29803;DHT22;16702;50.898;4.662;2022-11-20T10:03:49;8.00;99.90
29803;DHT22;16702;50.898;4.662;2022-11-20T10:06:23;8.10;99.90
29803;DHT22;16702;50.898;4.662;2022-11-20T10:09:01;8.10;99.90
29803;DHT22;16702;50.898;4.662;2022-11-20T10:11:42;8.10;99.90
29803;DHT22;16702;50.898;4.662;2022-11-20T10:14:23;8.10;99.90
29803;DHT22;16702;50.898;4.662;2022-11-20T10:17:03;8.20;99.90
29803;DHT22;16702;50.898;4.662;2022-11-20T10:19:47;8.20;99.90
29803;DHT22;16702;50.898;4.662;2022-11-20T10:22:32;8.20;99.90
29803;DHT22;16702;50.898;4.662;2022-11-20T10:25:12;8.20;99.90
29803;DHT22;16702;50.898;4.662;2022-11-20T10:30:42;8.30;99.90
29803;DHT22;16702;50.898;4.662;2022-11-20T10:33:18;8.30;99.90
29803;DHT22;16702;50.898;4.662;2022-11-20T10:35:52;8.30;99.90
29803;DHT22;16702;50.898;4.662;2022-11-20T10:38:31;8.40;99.90
29803;DHT22;16702;50.898;4.662;2022-11-20T10:41:05;8.40;99.90
29803;DHT22;16702;50.898;4.662;2022-11-20T10:43:52;8.40;99.90
29803;DHT22;16702;50.898;4.662;2022-11-20T10:46:24;8.50;99.90
29803;DHT22;16702;50.898;4.662;2022-11-20T10:48:58;8.50;99.90
29803;DHT22;16702;50.898;4.662;2022-11-20T10:51:35;8.50;99.90
29803;DHT22;16702;50.898;4.662;2022-11-20T10:54:16;8.60;99.90
29803;DHT22;16702;50.898;4.662;2022-11-20T10:56:50;8.60;99.90
29803;DHT22;16702;50.898;4.662;2022-11-20T10:59:41;8.60;99.90
29803;DHT22;16702;50.898;4.662;2022-11-20T11:02:17;8.70;99.90
29803;DHT22;16702;50.898;4.662;2022-11-20T11:04:51;8.80;99.90
29803;DHT22;16702;50.898;4.662;2022-11-20T11:07:24;8.90;99.90
29803;DHT22;16702;50.898;4.662;2022-11-20T11:09:57;8.90;99.90
29803;DHT22;16702;50.898;4.662;2022-11-20T11:12:28;8.90;99.90
29803;DHT22;16702;50.898;4.662;2022-11-20T11:14:59;9.00;99.90
29803;DHT22;16702;50.898;4.662;2022-11-20T11:17:33;9.00;99.90
29803;DHT22;16702;50.898;4.662;2022-11-20T11:20:15;9.00;99.90
29803;DHT22;16702;50.898;4.662;2022-11-20T11:22:47;9.00;99.90
29803;DHT22;16702;50.898;4.662;2022-11-20T11:25:24;9.10;99.90
29803;DHT22;16702;50.898;4.662;2022-11-20T11:27:57;9.10;99.90
29803;DHT22;16702;50.898;4.662;2022-11-20T11:30:29;9.10;99.90
29803;DHT22;16702;50.898;4.662;2022-11-20T11:33:05;9.10;99.90
29803;DHT22;16702;50.898;4.662;2022-11-20T11:35:44;9.00;99.90
29803;DHT22;16702;50.898;4.662;2022-11-20T11:38:22;9.20;99.90
29803;DHT22;16702;50.898;4.662;2022-11-20T11:40:54;9.20;99.90
29803;DHT22;16702;50.898;4.662;2022-11-20T11:43:26;9.20;99.90
29803;DHT22;16702;50.898;4.662;2022-11-20T11:46:25;9.20;99.90
29803;DHT22;16702;50.898;4.662;2022-11-20T11:48:58;9.20;99.90
29803;DHT22;16702;50.898;4.662;2022-11-20T11:51:34;9.20;99.90
29803;DHT22;16702;50.898;4.662;2022-11-20T11:54:15;9.20;99.90
29803;DHT22;16702;50.898;4.662;2022-11-20T11:56:46;9.30;99.90
29803;DHT22;16702;50.898;4.662;2022-11-20T11:59:23;9.30;99.90
29803;DHT22;16702;50.898;4.662;2022-11-20T12:01:57;9.30;99.90
29803;DHT22;16702;50.898;4.662;2022-11-20T12:04:42;9.40;99.90
29803;DHT22;16702;50.898;4.662;2022-11-20T12:07:21;9.40;99.90
29803;DHT22;16702;50.898;4.662;2022-11-20T12:10:19;9.40;99.90
29803;DHT22;16702;50.898;4.662;2022-11-20T12:12:55;9.40;99.90
29803;DHT22;16702;50.898;4.662;2022-11-20T12:15:30;9.40;99.90
29803;DHT22;16702;50.898;4.662;2022-11-20T12:18:01;9.40;99.90
29803;DHT22;16702;50.898;4.662;2022-11-20T12:20:43;9.30;99.90
29803;DHT22;16702;50.898;4.662;2022-11-20T12:23:22;9.30;99.90
29803;DHT22;16702;50.898;4.662;2022-11-20T12:25:57;9.30;99.90
29803;DHT22;16702;50.898;4.662;2022-11-20T12:28:42;9.30;99.90
29803;DHT22;16702;50.898;4.662;2022-11-20T12:31:31;9.30;99.90
29803;DHT22;16702;50.898;4.662;2022-11-20T12:34:21;9.30;99.90
29803;DHT22;16702;50.898;4.662;2022-11-20T12:36:59;9.30;99.90
29803;DHT22;16702;50.898;4.662;2022-11-20T12:39:38;9.20;99.90
29803;DHT22;16702;50.898;4.662;2022-11-20T12:42:29;9.20;99.90
29803;DHT22;16702;50.898;4.662;2022-11-20T12:45:32;9.20;99.90
29803;DHT22;16702;50.898;4.662;2022-11-20T12:48:30;9.20;99.90
29803;DHT22;16702;50.898;4.662;2022-11-20T12:54:29;9.20;99.90
29803;DHT22;16702;50.898;4.662;2022-11-20T12:57:08;9.20;99.90
29803;DHT22;16702;50.898;4.662;2022-11-20T12:59:54;9.20;99.90
29803;DHT22;16702;50.898;4.662;2022-11-20T13:02:37;9.30;99.90
29803;DHT22;16702;50.898;4.662;2022-11-20T13:05:19;9.20;99.90
29803;DHT22;16702;50.898;4.662;2022-11-20T13:07:53;9.20;99.90
29803;DHT22;16702;50.898;4.662;2022-11-20T13:10:28;9.20;99.90
29803;DHT22;16702;50.898;4.662;2022-11-20T13:13:05;9.20;99.90
29803;DHT22;16702;50.898;4.662;2022-11-20T13:15:50;9.20;99.90
29803;DHT22;16702;50.898;4.662;2022-11-20T13:18:22;9.20;99.90
29803;DHT22;16702;50.898;4.662;2022-11-20T13:20:52;9.30;99.90
29803;DHT22;16702;50.898;4.662;2022-11-20T13:23:26;9.30;99.90
29803;DHT22;16702;50.898;4.662;2022-11-20T13:26:06;9.20;99.90
29803;DHT22;16702;50.898;4.662;2022-11-20T13:28:39;9.20;99.90
29803;DHT22;16702;50.898;4.662;2022-11-20T13:31:28;9.30;99.90
29803;DHT22;16702;50.898;4.662;2022-11-20T13:34:02;9.20;99.90
29803;DHT22;16702;50.898;4.662;2022-11-20T13:36:34;9.20;99.90
29803;DHT22;16702;50.898;4.662;2022-11-20T13:39:05;9.20;99.90
29803;DHT22;16702;50.898;4.662;2022-11-20T13:41:37;9.20;99.90
29803;DHT22;16702;50.898;4.662;2022-11-20T13:44:15;9.20;99.90
29803;DHT22;16702;50.898;4.662;2022-11-20T13:46:53;9.20;99.90
29803;DHT22;16702;50.898;4.662;2022-11-20T13:49:27;9.30;99.90
29803;DHT22;16702;50.898;4.662;2022-11-20T13:52:19;9.20;99.90
29803;DHT22;16702;50.898;4.662;2022-11-20T13:55:05;9.20;99.90
29803;DHT22;16702;50.898;4.662;2022-11-20T13:58:07;9.10;99.90
29803;DHT22;16702;50.898;4.662;2022-11-20T14:00:51;9.20;99.90
29803;DHT22;16702;50.898;4.662;2022-11-20T14:03:26;9.20;99.90
29803;DHT22;16702;50.898;4.662;2022-11-20T14:06:26;9.10;99.90
29803;DHT22;16702;50.898;4.662;2022-11-20T14:08:59;9.30;99.90
29803;DHT22;16702;50.898;4.662;2022-11-20T14:11:30;9.10;99.90
29803;DHT22;16702;50.898;4.662;2022-11-20T14:14:02;9.20;99.90
29803;DHT22;16702;50.898;4.662;2022-11-20T14:16:36;9.20;99.90
29803;DHT22;16702;50.898;4.662;2022-11-20T14:19:25;9.10;99.90
29803;DHT22;16702;50.898;4.662;2022-11-20T14:22:16;9.10;99.90
29803;DHT22;16702;50.898;4.662;2022-11-20T14:24:48;9.20;99.90
29803;DHT22;16702;50.898;4.662;2022-11-20T14:27:20;9.20;99.90
29803;DHT22;16702;50.898;4.662;2022-11-20T14:29:51;9.10;99.90
29803;DHT22;16702;50.898;4.662;2022-11-20T14:32:31;9.10;99.90
29803;DHT22;16702;50.898;4.662;2022-11-20T14:35:09;9.20;99.90
29803;DHT22;16702;50.898;4.662;2022-11-20T14:37:41;9.20;99.90
29803;DHT22;16702;50.898;4.662;2022-11-20T14:40:30;9.20;99.90
29803;DHT22;16702;50.898;4.662;2022-11-20T14:43:17;9.10;99.90
29803;DHT22;16702;50.898;4.662;2022-11-20T14:45:55;9.20;99.90
29803;DHT22;16702;50.898;4.662;2022-11-20T14:48:32;9.10;99.90
29803;DHT22;16702;50.898;4.662;2022-11-20T14:51:04;9.20;99.90
29803;DHT22;16702;50.898;4.662;2022-11-20T14:53:34;9.10;99.90
29803;DHT22;16702;50.898;4.662;2022-11-20T14:56:04;9.10;99.90
29803;DHT22;16702;50.898;4.662;2022-11-20T14:58:35;9.10;99.90
29803;DHT22;16702;50.898;4.662;2022-11-20T15:01:06;9.10;99.90
29803;DHT22;16702;50.898;4.662;2022-11-20T15:03:41;9.10;99.90
29803;DHT22;16702;50.898;4.662;2022-11-20T15:06:12;9.10;99.90
29803;DHT22;16702;50.898;4.662;2022-11-20T15:08:51;9.10;99.90
29803;DHT22;16702;50.898;4.662;2022-11-20T15:11:28;9.10;99.90
29803;DHT22;16702;50.898;4.662;2022-11-20T15:14:03;9.10;99.90
29803;DHT22;16702;50.898;4.662;2022-11-20T15:16:35;9.20;99.90
29803;DHT22;16702;50.898;4.662;2022-11-20T15:19:16;9.20;99.90
29803;DHT22;16702;50.898;4.662;2022-11-20T15:21:47;9.10;99.90
29803;DHT22;16702;50.898;4.662;2022-11-20T15:24:18;9.10;99.90
29803;DHT22;16702;50.898;4.662;2022-11-20T15:26:49;9.10;99.90
29803;DHT22;16702;50.898;4.662;2022-11-20T15:29:20;9.10;99.90
29803;DHT22;16702;50.898;4.662;2022-11-20T15:31:52;9.10;99.90
29803;DHT22;16702;50.898;4.662;2022-11-20T15:34:27;9.10;99.90
29803;DHT22;16702;50.898;4.662;2022-11-20T15:36:57;9.10;99.90
29803;DHT22;16702;50.898;4.662;2022-11-20T15:39:28;9.10;99.90
29803;DHT22;16702;50.898;4.662;2022-11-20T15:41:58;9.10;99.90
29803;DHT22;16702;50.898;4.662;2022-11-20T15:44:28;9.10;99.90
29803;DHT22;16702;50.898;4.662;2022-11-20T15:46:59;9.20;99.90
29803;DHT22;16702;50.898;4.662;2022-11-20T15:49:32;9.10;99.90
29803;DHT22;16702;50.898;4.662;2022-11-20T15:52:02;9.20;99.90
29803;DHT22;16702;50.898;4.662;2022-11-20T15:54:32;9.10;99.90
29803;DHT22;16702;50.898;4.662;2022-11-20T15:57:03;9.10;99.90
29803;DHT22;16702;50.898;4.662;2022-11-20T15:59:33;9.20;99.90
29803;DHT22;16702;50.898;4.662;2022-11-20T16:02:09;9.20;99.90
29803;DHT22;16702;50.898;4.662;2022-11-20T16:04:47;9.20;99.90
29803;DHT22;16702;50.898;4.662;2022-11-20T16:07:18;9.20;99.90
29803;DHT22;16702;50.898;4.662;2022-11-20T16:09:48;9.10;99.90
29803;DHT22;16702;50.898;4.662;2022-11-20T16:12:18;9.10;99.90
29803;DHT22;16702;50.898;4.662;2022-11-20T16:15:01;9.10;99.90
29803;DHT22;16702;50.898;4.662;2022-11-20T16:17:43;9.20;99.90
29803;DHT22;16702;50.898;4.662;2022-11-20T16:20:16;9.10;99.90
29803;DHT22;16702;50.898;4.662;2022-11-20T16:22:47;9.10;99.90
29803;DHT22;16702;50.898;4.662;2022-11-20T16:25:17;9.10;99.90
29803;DHT22;16702;50.898;4.662;2022-11-20T16:27:47;9.10;99.90
29803;DHT22;16702;50.898;4.662;2022-11-20T16:30:18;9.20;99.90
29803;DHT22;16702;50.898;4.662;2022-11-20T16:32:48;9.20;99.90